Time;durP1;ratioP1;P1;durP2;ratioP2;P2;SDS_P1;SDS_P2;PMS_P1;PMS_P2;Temp;Humidity;BMP_temperature;BMP_pressure;BME280_temperature;BME280_humidity;BME280_pressure;Samples;Min_cycle;Max_cycle;Signal;HPM_P1;HPM_P2
2021/09/30 00:03:27;;;;;;;1999.90;999.90;;;;;;;12.26;70.19;101671.16;15691060;28;20035;-59
2021/09/30 00:11:09;;;;;;;1999.90;999.90;;;;;;;12.18;70.24;101676.72;15681398;28;20387;-60
2021/09/30 00:34:43;;;;;;;1999.90;999.90;;;;;;;12.00;69.64;101690.63;15605847;28;20053;-61
2021/09/30 00:42:24;;;;;;;1999.90;999.90;;;;;;;12.03;68.74;101692.78;15604753;28;20064;-61
2021/09/30 00:50:09;;;;;;;1999.90;999.90;;;;;;;11.75;69.15;101692.03;15604047;28;20038;-61
2021/09/30 02:18:34;;;;;;;1999.90;999.90;;;;;;;11.57;71.09;101732.19;15698333;28;20079;-59
2021/09/30 02:26:28;;;;;;;1999.90;999.90;;;;;;;11.52;71.28;101733.13;15665367;28;20037;-61
2021/09/30 02:58:28;;;;;;;1999.90;999.90;;;;;;;11.79;70.42;101746.25;15654381;23;20057;-82
2021/09/30 03:06:05;;;;;;;1999.90;999.90;;;;;;;11.76;70.92;101754.38;15664563;28;20051;-84
2021/09/30 03:13:39;;;;;;;1999.90;999.90;;;;;;;11.65;70.39;101744.59;15657713;28;20040;-83
2021/09/30 03:29:08;;;;;;;1999.90;999.90;;;;;;;11.80;70.11;101770.25;15666017;28;20052;-81
2021/09/30 03:36:52;;;;;;;1999.90;999.90;;;;;;;11.69;70.37;101771.63;15739016;28;20049;-83
2021/09/30 03:44:32;;;;;;;1999.90;999.90;;;;;;;11.58;70.97;101775.78;15729889;28;20040;-82
2021/09/30 03:52:11;;;;;;;1999.90;999.90;;;;;;;11.81;69.99;101766.31;15719390;28;20147;-83
2021/09/30 03:59:43;;;;;;;1999.90;999.90;;;;;;;11.65;70.29;101766.94;15734795;28;20044;-83
2021/09/30 04:07:43;;;;;;;1999.90;999.90;;;;;;;11.73;69.97;101777.38;15633100;22;20125;-58
2021/09/30 04:15:18;;;;;;;1999.90;999.90;;;;;;;11.58;71.05;101775.78;15545104;28;20092;-61
2021/09/30 04:22:52;;;;;;;1999.90;999.90;;;;;;;11.70;70.39;101778.84;15561749;28;20042;-61
2021/09/30 04:30:27;;;;;;;1999.90;999.90;;;;;;;11.74;69.81;101801.41;15589268;28;20080;-60
2021/09/30 04:38:27;;;;;;;1999.90;999.90;;;;;;;11.71;70.24;101804.84;15622008;28;20037;-57
2021/09/30 04:45:59;;;;;;;1999.90;999.90;;;;;;;11.38;70.95;101806.97;15621565;28;20037;-62
2021/09/30 04:53:40;;;;;;;1999.90;999.90;;;;;;;11.68;70.70;101825.06;15620508;28;20045;-57
2021/09/30 05:01:13;;;;;;;1999.90;999.90;;;;;;;11.57;70.35;101836.47;15620953;28;20124;-58
2021/09/30 05:08:57;;;;;;;1999.90;999.90;;;;;;;11.70;70.34;101843.16;15549159;28;20046;-56
2021/09/30 05:16:30;;;;;;;1999.90;999.90;;;;;;;11.69;70.06;101843.47;15561524;28;20046;-59
2021/09/30 05:24:22;;;;;;;1999.90;999.90;;;;;;;11.59;70.18;101858.50;15549009;28;20049;-56
2021/09/30 05:31:55;;;;;;;;;;;;;;;11.99;69.65;101864.38;15560190;28;20072;-60
2021/09/30 05:40:01;;;;;;;1999.90;999.90;;;;;;;11.99;69.07;101870.78;15543294;28;20412;-58
2021/09/30 05:47:36;;;;;;;1999.90;999.90;;;;;;;11.98;68.94;101882.28;15549794;28;20125;-57
2021/09/30 05:55:15;;;;;;;1999.90;999.90;;;;;;;12.16;68.82;101877.69;15556954;28;20044;-60
2021/09/30 06:10:58;;;;;;;1999.90;999.90;;;;;;;12.25;68.43;101896.19;15554355;28;20105;-56
2021/09/30 06:18:31;;;;;;;1999.90;999.90;;;;;;;12.49;67.69;101904.28;15538246;28;20042;-58
2021/09/30 06:26:08;;;;;;;1999.90;999.90;;;;;;;12.58;67.72;101910.78;15554789;28;20051;-61
2021/09/30 06:33:48;;;;;;;1999.90;999.90;;;;;;;12.55;67.13;101919.00;15611019;28;20034;-58
2021/09/30 06:41:45;;;;;;;1999.90;999.90;;;;;;;12.66;67.00;101923.22;15599892;28;20053;-58
2021/09/30 06:50:00;;;;;;;1999.90;999.90;;;;;;;12.32;67.84;101929.38;15545264;28;20103;-61
2021/09/30 06:58:03;;;;;;;1999.90;999.90;;;;;;;12.89;67.52;101946.44;15611697;28;20201;-59
2021/09/30 07:06:01;;;;;;;1999.90;999.90;;;;;;;12.70;67.24;101941.03;15614972;28;20045;-59
2021/09/30 07:13:40;;;;;;;1999.90;999.90;;;;;;;12.74;67.23;101953.25;15618080;28;20542;-56
2021/09/30 07:21:25;;;;;;;1999.90;999.90;;;;;;;12.74;67.07;101961.66;15624424;28;20120;-58
2021/09/30 07:29:04;;;;;;;1999.90;999.90;;;;;;;12.89;66.33;101963.25;15608951;28;20041;-59
2021/09/30 07:36:42;;;;;;;1999.90;999.90;;;;;;;12.82;67.90;101965.66;15566533;28;20049;-57
2021/09/30 07:44:34;;;;;;;1999.90;999.90;;;;;;;13.10;66.22;101975.59;15566483;28;20525;-58
2021/09/30 07:52:25;;;;;;;1999.90;999.90;;;;;;;13.07;65.97;101976.25;15564632;28;20088;-61
2021/09/30 07:59:59;;;;;;;1999.90;999.90;;;;;;;13.40;65.42;101992.78;15580219;28;20060;-60
2021/09/30 08:07:40;;;;;;;1999.90;999.90;;;;;;;13.56;65.65;101996.84;15579263;28;20045;-59
2021/09/30 08:15:14;;;;;;;1999.90;999.90;;;;;;;13.76;64.63;102009.47;15564284;28;20524;-59
2021/09/30 08:22:50;;;;;;;1999.90;999.90;;;;;;;13.91;63.96;102011.00;15570706;28;20046;-59
2021/09/30 08:30:24;;;;;;;1999.90;999.90;;;;;;;14.06;64.21;102018.97;15589040;28;20049;-59
2021/09/30 08:37:56;;;;;;;1999.90;999.90;;;;;;;14.39;62.81;102028.66;15622096;28;20509;-58
2021/09/30 08:45:32;;;;;;;1999.90;999.90;;;;;;;14.35;62.72;102032.44;15623221;28;20053;-59
2021/09/30 08:53:25;;;;;;;1999.90;999.90;;;;;;;15.40;60.66;102049.03;15615634;28;20069;-56
2021/09/30 09:01:10;;;;;;;1999.90;999.90;;;;;;;17.05;57.10;102049.06;15621369;28;20405;-57
2021/09/30 09:08:44;;;;;;;1999.90;999.90;;;;;;;16.26;57.42;102053.56;15622212;28;20041;-60
2021/09/30 09:16:27;;;;;;;1999.90;999.90;;;;;;;15.81;58.10;102058.88;15621103;28;20128;-61
2021/09/30 09:24:01;;;;;;;1999.90;999.90;;;;;;;16.26;57.45;102064.84;15620131;28;20045;-61
2021/09/30 09:31:38;;;;;;;1999.90;999.90;;;;;;;16.97;56.44;102076.16;15581403;28;20096;-59
2021/09/30 09:39:10;;;;;;;1999.90;999.90;;;;;;;18.29;53.06;102071.63;15591061;28;20113;-60
2021/09/30 09:46:53;;;;;;;1999.90;999.90;;;;;;;18.98;51.91;102070.63;15557411;28;20053;-60
2021/09/30 09:54:26;;;;;;;1999.90;999.90;;;;;;;18.50;53.27;102082.81;15558077;28;20052;-60
2021/09/30 10:02:03;;;;;;;1999.90;999.90;;;;;;;18.92;51.56;102084.19;15556487;28;20048;-58
2021/09/30 10:09:35;;;;;;;1999.90;999.90;;;;;;;19.35;49.78;102082.63;15554902;28;20042;-59
2021/09/30 10:17:12;;;;;;;1999.90;999.90;;;;;;;20.66;46.31;102073.16;15555896;28;20056;-59
2021/09/30 10:24:49;;;;;;;1999.90;999.90;;;;;;;20.99;46.71;102075.53;15559111;28;20050;-59
2021/09/30 10:32:49;;;;;;;;;;;;;;;20.30;47.51;102077.09;15602339;28;20132;-60
2021/09/30 10:40:25;;;;;;;1999.90;999.90;;;;;;;20.54;47.19;102082.63;15617049;28;20011;-59
2021/09/30 10:48:06;;;;;;;1999.90;999.90;;;;;;;19.59;49.49;102081.72;15615487;28;20041;-57
2021/09/30 10:55:41;;;;;;;1999.90;999.90;;;;;;;18.48;50.22;102086.00;15614861;28;20081;-57
2021/09/30 11:03:23;;;;;;;1999.90;999.90;;;;;;;18.69;50.67;102080.22;15614919;28;20566;-58
2021/09/30 11:11:16;;;;;;;1999.90;999.90;;;;;;;18.80;48.86;102072.91;15615060;28;20049;-59
2021/09/30 11:18:54;;;;;;;1999.90;999.90;;;;;;;20.43;45.71;102071.00;15612978;28;20509;-60
2021/09/30 11:26:28;;;;;;;1999.90;999.90;;;;;;;19.98;46.71;102079.13;15615636;28;20418;-60
2021/09/30 11:34:03;;;;;;;1999.90;999.90;;;;;;;19.73;46.83;102081.31;15577646;28;20061;-60
2021/09/30 11:41:37;;;;;;;1999.90;999.90;;;;;;;18.64;49.21;102071.94;15594546;28;20053;-61
2021/09/30 11:49:12;;;;;;;1999.90;999.90;;;;;;;18.62;50.28;102075.13;15581050;28;20176;-58
2021/09/30 11:56:47;;;;;;;1999.90;999.90;;;;;;;18.25;50.81;102079.16;15550830;28;20073;-60
2021/09/30 12:04:38;;;;;;;1999.90;999.90;;;;;;;17.78;50.07;102088.03;15574867;28;20115;-61
2021/09/30 12:12:13;;;;;;;1999.90;999.90;;;;;;;17.67;49.93;102087.63;15622876;28;20111;-60
2021/09/30 12:19:49;;;;;;;1999.90;999.90;;;;;;;17.48;51.34;102090.97;15625181;28;20119;-57
2021/09/30 12:27:24;;;;;;;1999.90;999.90;;;;;;;18.32;48.73;102091.50;15622297;28;20057;-60
2021/09/30 12:35:00;;;;;;;1999.90;999.90;;;;;;;22.61;40.55;102087.53;15622867;28;20041;-59
2021/09/30 12:42:33;;;;;;;1999.90;999.90;;;;;;;23.93;35.86;102082.75;15525877;28;20050;-62
2021/09/30 12:50:10;;;;;;;1999.90;999.90;;;;;;;26.55;34.20;102075.84;15501620;28;20381;-61
2021/09/30 12:57:43;;;;;;;1999.90;999.90;;;;;;;24.05;34.83;102071.88;15500743;28;20065;-62
2021/09/30 13:05:17;;;;;;;1999.90;999.90;;;;;;;25.04;34.00;102076.75;15500481;28;20053;-62
2021/09/30 13:13:08;;;;;;;1999.90;999.90;;;;;;;25.51;32.29;102074.88;15498501;28;20089;-61
2021/09/30 13:20:44;;;;;;;1999.90;999.90;;;;;;;26.55;30.74;102082.38;15499287;28;20399;-60
2021/09/30 13:28:16;;;;;;;1999.90;999.90;;;;;;;19.81;41.49;102071.81;15498375;28;20054;-59
2021/09/30 13:35:50;;;;;;;1999.90;999.90;;;;;;;20.38;41.53;102067.59;15498825;28;20073;-61
2021/09/30 13:43:22;;;;;;;1999.90;999.90;;;;;;;19.68;43.49;102070.22;15615297;28;20041;-61
2021/09/30 13:50:56;;;;;;;1999.90;999.90;;;;;;;19.73;45.51;102065.13;15601824;28;20079;-61
2021/09/30 13:58:29;;;;;;;1999.90;999.90;;;;;;;19.02;46.48;102060.22;15600365;28;20049;-60
2021/09/30 14:06:03;;;;;;;1999.90;999.90;;;;;;;19.04;44.46;102063.53;15600898;28;20084;-61
2021/09/30 14:13:35;;;;;;;1999.90;999.90;;;;;;;18.58;46.73;102065.72;15618381;28;20513;-61
2021/09/30 14:21:09;;;;;;;1999.90;999.90;;;;;;;18.75;47.06;102056.16;15616932;28;20068;-61
2021/09/30 14:28:41;;;;;;;1999.90;999.90;;;;;;;18.70;47.54;102056.44;15616812;28;20103;-62
2021/09/30 14:36:16;;;;;;;1999.90;999.90;;;;;;;18.64;47.53;102064.31;15615419;28;20490;-61
2021/09/30 14:43:53;;;;;;;1999.90;999.90;;;;;;;18.67;48.30;102052.31;15555818;28;20073;-61
2021/09/30 14:51:27;;;;;;;1999.90;999.90;;;;;;;18.57;46.80;102055.59;15553905;28;20042;-62
2021/09/30 14:59:00;;;;;;;1999.90;999.90;;;;;;;18.34;47.65;102052.44;15555961;28;20112;-61
2021/09/30 15:06:35;;;;;;;1999.90;999.90;;;;;;;18.18;48.27;102032.53;15584041;22;20059;-63
2021/09/30 15:14:09;;;;;;;1999.90;999.90;;;;;;;17.74;46.74;102039.09;15610395;28;20049;-60
2021/09/30 15:21:43;;;;;;;1999.90;999.90;;;;;;;17.47;47.65;102040.53;15592286;28;20053;-60
2021/09/30 15:29:17;;;;;;;1999.90;999.90;;;;;;;17.47;48.49;102048.97;15609663;28;20045;-60
2021/09/30 15:36:52;;;;;;;1999.90;999.90;;;;;;;17.50;48.76;102046.28;15614846;28;20458;-60
2021/09/30 15:44:24;;;;;;;1999.90;999.90;;;;;;;17.46;50.29;102044.50;15685112;28;20397;-59
2021/09/30 15:51:58;;;;;;;1999.90;999.90;;;;;;;17.21;50.99;102035.97;15682941;28;20099;-59
2021/09/30 15:59:31;;;;;;;1999.90;999.90;;;;;;;16.95;50.99;102044.66;15682017;28;20041;-60
2021/09/30 16:07:04;;;;;;;1999.90;999.90;;;;;;;16.85;51.01;102055.53;15635477;28;20045;-60
2021/09/30 16:14:38;;;;;;;1999.90;999.90;;;;;;;16.56;51.88;102048.72;15601801;28;20483;-60
2021/09/30 16:22:14;;;;;;;1999.90;999.90;;;;;;;16.54;52.07;102044.59;15602301;28;20050;-60
2021/09/30 16:29:46;;;;;;;1999.90;999.90;;;;;;;16.50;53.78;102055.75;15620825;28;20045;-61
2021/09/30 16:37:38;;;;;;;1999.90;999.90;;;;;;;16.19;55.75;102058.91;15628948;28;20044;-61
2021/09/30 16:45:10;;;;;;;1999.90;999.90;;;;;;;16.11;53.88;102056.94;15681977;28;20140;-60
2021/09/30 16:52:46;;;;;;;1999.90;999.90;;;;;;;15.78;56.64;102068.00;15678200;28;20087;-60
2021/09/30 17:00:45;;;;;;;1999.90;999.90;;;;;;;15.69;55.80;102070.84;15660823;28;20493;-60
2021/09/30 17:08:18;;;;;;;1999.90;999.90;;;;;;;15.38;56.18;102084.28;15676374;28;20440;-60
2021/09/30 17:15:55;;;;;;;1999.90;999.90;;;;;;;15.12;57.01;102082.31;15660832;28;20053;-60
2021/09/30 17:23:29;;;;;;;1999.90;999.90;;;;;;;14.98;57.11;102084.44;15675801;28;20040;-60
2021/09/30 17:31:01;;;;;;;1999.90;999.90;;;;;;;14.85;57.67;102077.84;15658454;28;20128;-60
2021/09/30 17:38:36;;;;;;;;;;;;;;;14.76;58.00;102082.63;15638694;28;20229;-61
2021/09/30 17:46:08;;;;;;;1999.90;999.90;;;;;;;14.59;58.38;102080.63;15614163;28;20019;-61
2021/09/30 17:53:42;;;;;;;1999.90;999.90;;;;;;;14.57;58.46;102082.91;15589269;28;20538;-61
2021/09/30 18:01:14;;;;;;;1999.90;999.90;;;;;;;14.41;59.32;102092.94;15593862;28;20103;-60
2021/09/30 18:08:53;;;;;;;1999.90;999.90;;;;;;;14.16;60.12;102092.50;15612700;28;20041;-61
2021/09/30 18:16:29;;;;;;;1999.90;999.90;;;;;;;13.96;62.11;102098.69;15612602;28;20052;-62
2021/09/30 18:24:04;;;;;;;;;;;;;;;13.76;63.00;102094.47;15613118;28;20389;-62
2021/09/30 18:31:38;;;;;;;1999.90;999.90;;;;;;;13.40;63.71;102094.56;15612390;28;19928;-61
2021/09/30 18:39:15;;;;;;;1999.90;999.90;;;;;;;13.27;64.87;102093.47;15611018;28;20045;-63
2021/09/30 18:46:51;;;;;;;1999.90;999.90;;;;;;;13.26;64.92;102091.81;15611740;28;20514;-62
2021/09/30 18:54:25;;;;;;;1999.90;999.90;;;;;;;13.06;65.69;102094.25;15607300;28;20069;-62
2021/09/30 19:02:06;;;;;;;1999.90;999.90;;;;;;;13.15;64.97;102098.78;15606481;28;20049;-63
2021/09/30 19:09:44;;;;;;;1999.90;999.90;;;;;;;12.98;64.74;102107.88;15611112;28;20065;-61
2021/09/30 19:17:16;;;;;;;1999.90;999.90;;;;;;;13.18;63.80;102100.13;15609964;28;20073;-62
2021/09/30 19:24:50;;;;;;;1999.90;999.90;;;;;;;13.15;64.07;102104.41;15608943;28;20111;-61
2021/09/30 19:32:22;;;;;;;;;;;;;;;13.04;64.91;102114.19;15617502;28;20049;-61
2021/09/30 19:39:56;;;;;;;1999.90;999.90;;;;;;;12.65;65.83;102100.78;15596222;28;19921;-61
2021/09/30 19:47:29;;;;;;;1999.90;999.90;;;;;;;12.54;66.25;102107.75;15615004;28;20041;-60
2021/09/30 19:55:06;;;;;;;1999.90;999.90;;;;;;;12.57;66.00;102109.91;15606707;28;20051;-61
2021/09/30 20:02:57;;;;;;;1999.90;999.90;;;;;;;12.37;67.03;102102.78;15599883;28;20042;-61
2021/09/30 20:10:31;;;;;;;1999.90;999.90;;;;;;;12.35;66.85;102102.28;15582279;28;20037;-60
2021/09/30 20:18:09;;;;;;;1999.90;999.90;;;;;;;12.20;66.60;102108.19;15605033;28;20077;-62
2021/09/30 20:25:44;;;;;;;1999.90;999.90;;;;;;;12.40;66.73;102110.53;15599400;28;20664;-61
2021/09/30 20:33:16;;;;;;;1999.90;999.90;;;;;;;12.21;65.99;102116.28;15612432;28;20510;-61
2021/09/30 20:40:55;;;;;;;1999.90;999.90;;;;;;;11.83;68.31;102121.19;15603842;28;20091;-61
2021/09/30 20:48:27;;;;;;;1999.90;999.90;;;;;;;11.83;67.25;102121.19;15612280;28;20544;-59
2021/09/30 20:56:10;;;;;;;1999.90;999.90;;;;;;;11.89;66.96;102116.34;15612588;28;20104;-62
2021/09/30 21:03:56;;;;;;;1999.90;999.90;;;;;;;11.54;68.45;102119.41;15607201;28;20077;-59
2021/09/30 21:11:36;;;;;;;1999.90;999.90;;;;;;;11.53;68.12;102131.72;15622035;23;20051;-57
2021/09/30 21:19:09;;;;;;;1999.90;999.90;;;;;;;11.50;68.30;102117.56;15621386;28;20041;-58
2021/09/30 21:26:43;;;;;;;1999.90;999.90;;;;;;;11.45;68.80;102124.03;15622111;28;20133;-57
2021/09/30 21:34:15;;;;;;;1999.90;999.90;;;;;;;11.27;68.09;102119.34;15621540;28;20053;-57
2021/09/30 21:41:48;;;;;;;1999.90;999.90;;;;;;;11.31;68.14;102109.19;15621321;28;20506;-56
2021/09/30 21:49:20;;;;;;;;;;;;;;;11.46;67.64;102108.94;15621909;28;20475;-56
2021/09/30 21:56:54;;;;;;;1999.90;999.90;;;;;;;11.37;67.80;102112.75;15620626;28;20421;-56
2021/09/30 22:04:26;;;;;;;;;;;;;;;11.36;68.03;102103.53;15620157;28;20049;-57
2021/09/30 22:12:01;;;;;;;1999.90;999.90;;;;;;;10.96;67.90;102091.88;15619105;28;20263;-56
2021/09/30 22:19:34;;;;;;;1999.90;999.90;;;;;;;10.85;68.09;102089.53;15618979;28;20049;-56
2021/09/30 22:27:07;;;;;;;1999.90;999.90;;;;;;;11.04;67.88;102092.28;15619302;28;20053;-59
2021/09/30 22:34:39;;;;;;;;;;;;;;;10.94;67.54;102087.69;15618391;28;20105;-56
2021/09/30 22:42:14;;;;;;;1999.90;999.90;;;;;;;11.21;66.59;102084.22;15616816;28;19967;-58
2021/09/30 22:49:46;;;;;;;1999.90;999.90;;;;;;;10.99;66.88;102087.63;15616678;28;20620;-55
2021/09/30 22:57:20;;;;;;;1999.90;999.90;;;;;;;11.07;66.66;102086.13;15615463;28;20033;-57
2021/09/30 23:04:52;;;;;;;1999.90;999.90;;;;;;;11.09;66.58;102079.09;15615534;28;20041;-57
2021/09/30 23:12:26;;;;;;;1999.90;999.90;;;;;;;10.90;67.25;102081.88;15615321;28;20045;-58
2021/09/30 23:20:00;;;;;;;;;;;;;;;11.05;67.11;102080.84;15609929;28;20502;-57
2021/09/30 23:27:33;;;;;;;1999.90;999.90;;;;;;;10.94;67.60;102079.31;15606741;28;19921;-57
2021/09/30 23:35:09;;;;;;;1999.90;999.90;;;;;;;11.40;66.72;102075.78;15615684;28;20171;-57
2021/09/30 23:42:42;;;;;;;1999.90;999.90;;;;;;;11.49;66.06;102065.56;15616418;28;20052;-56
2021/09/30 23:50:18;;;;;;;1999.90;999.90;;;;;;;11.19;67.11;102058.53;15617586;28;20080;-58
2021/09/30 23:57:52;;;;;;;1999.90;999.90;;;;;;;11.42;66.70;102059.53;15616941;28;20046;-59
